sensor_id;sensor_type;location;lat;lon;timestamp;pressure;altitude;pressure_sealevel;temperature;humidity
78383;BME280;67668;52.294;4.692;2024-01-16T00:00:22;100987.06;;;3.29;79.78
78383;BME280;67668;52.294;4.692;2024-01-16T00:02:47;100982.66;;;3.29;81.04
78383;BME280;67668;52.294;4.692;2024-01-16T00:05:13;100985.28;;;3.29;81.71
78383;BME280;67668;52.294;4.692;2024-01-16T00:07:39;100992.09;;;3.32;81.24
78383;BME280;67668;52.294;4.692;2024-01-16T00:10:07;100978.09;;;3.33;81.94
78383;BME280;67668;52.294;4.692;2024-01-16T00:12:33;100985.03;;;3.34;82.21
78383;BME280;67668;52.294;4.692;2024-01-16T00:14:58;100979.78;;;3.34;82.64
78383;BME280;67668;52.294;4.692;2024-01-16T00:17:23;100978.75;;;3.36;83.18
78383;BME280;67668;52.294;4.692;2024-01-16T00:19:49;100980.34;;;3.39;82.33
78383;BME280;67668;52.294;4.692;2024-01-16T00:22:14;100986.34;;;3.41;81.77
78383;BME280;67668;52.294;4.692;2024-01-16T00:24:40;100977.72;;;3.39;80.88
78383;BME280;67668;52.294;4.692;2024-01-16T00:27:05;100984.66;;;3.40;81.26
78383;BME280;67668;52.294;4.692;2024-01-16T00:29:30;100985.50;;;3.40;81.17
78383;BME280;67668;52.294;4.692;2024-01-16T00:31:56;100975.94;;;3.39;81.99
78383;BME280;67668;52.294;4.692;2024-01-16T00:34:21;100979.41;;;3.40;81.01
78383;BME280;67668;52.294;4.692;2024-01-16T00:36:47;100981.19;;;3.39;80.08
78383;BME280;67668;52.294;4.692;2024-01-16T00:39:12;100979.41;;;3.40;80.08
78383;BME280;67668;52.294;4.692;2024-01-16T00:41:38;100992.56;;;3.38;80.17
78383;BME280;67668;52.294;4.692;2024-01-16T00:44:03;100989.22;;;3.36;79.17
78383;BME280;67668;52.294;4.692;2024-01-16T00:46:29;100991.91;;;3.35;78.51
78383;BME280;67668;52.294;4.692;2024-01-16T00:48:54;100996.31;;;3.34;78.19
78383;BME280;67668;52.294;4.692;2024-01-16T00:51:19;101019.09;;;3.32;79.37
78383;BME280;67668;52.294;4.692;2024-01-16T00:53:45;101017.44;;;3.31;80.71
78383;BME280;67668;52.294;4.692;2024-01-16T00:56:10;101014.06;;;3.29;81.74
78383;BME280;67668;52.294;4.692;2024-01-16T00:58:37;101023.47;;;3.32;82.41
78383;BME280;67668;52.294;4.692;2024-01-16T01:01:03;101033.13;;;3.31;82.49
78383;BME280;67668;52.294;4.692;2024-01-16T01:03:28;101026.88;;;3.34;83.44
78383;BME280;67668;52.294;4.692;2024-01-16T01:05:54;101024.16;;;3.35;83.17
78383;BME280;67668;52.294;4.692;2024-01-16T01:08:19;101038.06;;;3.36;83.30
78383;BME280;67668;52.294;4.692;2024-01-16T01:10:44;101038.00;;;3.37;83.54
78383;BME280;67668;52.294;4.692;2024-01-16T01:13:10;101044.06;;;3.38;83.66
78383;BME280;67668;52.294;4.692;2024-01-16T01:15:35;101043.22;;;3.37;84.18
78383;BME280;67668;52.294;4.692;2024-01-16T01:18:00;101036.22;;;3.38;84.18
78383;BME280;67668;52.294;4.692;2024-01-16T01:20:26;101038.72;;;3.39;83.91
78383;BME280;67668;52.294;4.692;2024-01-16T01:22:51;101037.81;;;3.40;84.18
78383;BME280;67668;52.294;4.692;2024-01-16T01:25:17;101031.53;;;3.43;84.79
78383;BME280;67668;52.294;4.692;2024-01-16T01:27:42;101032.28;;;3.45;84.83
78383;BME280;67668;52.294;4.692;2024-01-16T01:30:08;101024.44;;;3.45;84.75
78383;BME280;67668;52.294;4.692;2024-01-16T01:32:37;101022.78;;;3.44;84.38
78383;BME280;67668;52.294;4.692;2024-01-16T01:35:03;101013.16;;;3.44;84.96
78383;BME280;67668;52.294;4.692;2024-01-16T01:37:28;101013.16;;;3.44;84.32
78383;BME280;67668;52.294;4.692;2024-01-16T01:39:53;101008.75;;;3.45;84.99
78383;BME280;67668;52.294;4.692;2024-01-16T01:42:19;101007.09;;;3.44;84.38
78383;BME280;67668;52.294;4.692;2024-01-16T01:44:44;101007.09;;;3.44;84.51
78383;BME280;67668;52.294;4.692;2024-01-16T01:47:09;101001.00;;;3.43;84.54
78383;BME280;67668;52.294;4.692;2024-01-16T01:49:35;101004.34;;;3.45;84.89
78383;BME280;67668;52.294;4.692;2024-01-16T01:52:02;100997.34;;;3.46;84.59
78383;BME280;67668;52.294;4.692;2024-01-16T01:54:29;101001.66;;;3.47;85.43
78383;BME280;67668;52.294;4.692;2024-01-16T01:56:56;100994.72;;;3.46;84.88
78383;BME280;67668;52.294;4.692;2024-01-16T01:59:22;101004.28;;;3.47;85.02
78383;BME280;67668;52.294;4.692;2024-01-16T02:01:50;101004.16;;;3.48;85.48
78383;BME280;67668;52.294;4.692;2024-01-16T02:04:19;100996.31;;;3.48;85.42
78383;BME280;67668;52.294;4.692;2024-01-16T02:06:44;100992.88;;;3.48;85.35
78383;BME280;67668;52.294;4.692;2024-01-16T02:09:13;100993.69;;;3.48;85.43
78383;BME280;67668;52.294;4.692;2024-01-16T02:11:41;100997.28;;;3.47;85.12
78383;BME280;67668;52.294;4.692;2024-01-16T02:14:08;100993.81;;;3.47;84.90
78383;BME280;67668;52.294;4.692;2024-01-16T02:16:39;100997.34;;;3.46;85.43
78383;BME280;67668;52.294;4.692;2024-01-16T02:19:05;100993.81;;;3.47;85.33
78383;BME280;67668;52.294;4.692;2024-01-16T02:21:47;100993.81;;;3.47;85.51
78383;BME280;67668;52.294;4.692;2024-01-16T02:24:15;101005.13;;;3.47;85.03
78383;BME280;67668;52.294;4.692;2024-01-16T02:26:42;101000.81;;;3.46;85.16
78383;BME280;67668;52.294;4.692;2024-01-16T02:29:07;101003.50;;;3.45;84.89
78383;BME280;67668;52.294;4.692;2024-01-16T02:31:33;101004.34;;;3.45;85.08
78383;BME280;67668;52.294;4.692;2024-01-16T02:33:58;101000.16;;;3.43;85.92
78383;BME280;67668;52.294;4.692;2024-01-16T02:36:25;101001.19;;;3.40;85.28
78383;BME280;67668;52.294;4.692;2024-01-16T02:38:50;100998.75;;;3.37;85.75
78383;BME280;67668;52.294;4.692;2024-01-16T02:41:16;101005.84;;;3.35;85.76
78383;BME280;67668;52.294;4.692;2024-01-16T02:43:42;101002.47;;;3.33;86.06
78383;BME280;67668;52.294;4.692;2024-01-16T02:46:08;101000.72;;;3.34;85.78
78383;BME280;67668;52.294;4.692;2024-01-16T02:48:34;101000.53;;;3.37;85.95
78383;BME280;67668;52.294;4.692;2024-01-16T02:51:00;100999.69;;;3.36;86.18
78383;BME280;67668;52.294;4.692;2024-01-16T02:53:25;100995.28;;;3.37;86.00
78383;BME280;67668;52.294;4.692;2024-01-16T02:55:50;101002.09;;;3.39;86.08
78383;BME280;67668;52.294;4.692;2024-01-16T02:58:17;100994.19;;;3.41;86.40
78383;BME280;67668;52.294;4.692;2024-01-16T03:00:42;100995.03;;;3.41;85.95
78383;BME280;67668;52.294;4.692;2024-01-16T03:03:07;100994.06;;;3.42;86.29
78383;BME280;67668;52.294;4.692;2024-01-16T03:05:33;100984.47;;;3.43;86.17
78383;BME280;67668;52.294;4.692;2024-01-16T03:07:59;100984.47;;;3.43;85.75
78383;BME280;67668;52.294;4.692;2024-01-16T03:10:25;100988.84;;;3.42;85.68
78383;BME280;67668;52.294;4.692;2024-01-16T03:12:50;100993.16;;;3.43;85.83
78383;BME280;67668;52.294;4.692;2024-01-16T03:15:15;100994.00;;;3.44;85.75
78383;BME280;67668;52.294;4.692;2024-01-16T03:17:41;100994.06;;;3.42;85.84
78383;BME280;67668;52.294;4.692;2024-01-16T03:20:06;100994.91;;;3.43;85.77
78383;BME280;67668;52.294;4.692;2024-01-16T03:22:32;101005.38;;;3.43;85.46
78383;BME280;67668;52.294;4.692;2024-01-16T03:24:57;101005.50;;;3.41;85.77
78383;BME280;67668;52.294;4.692;2024-01-16T03:27:22;101015.00;;;3.42;85.67
78383;BME280;67668;52.294;4.692;2024-01-16T03:29:48;101007.34;;;3.39;85.64
78383;BME280;67668;52.294;4.692;2024-01-16T03:32:13;101000.34;;;3.40;85.84
78383;BME280;67668;52.294;4.692;2024-01-16T03:34:39;100995.13;;;3.40;86.01
78383;BME280;67668;52.294;4.692;2024-01-16T03:37:05;100991.56;;;3.41;86.25
78383;BME280;67668;52.294;4.692;2024-01-16T03:39:30;100991.66;;;3.39;85.92
78383;BME280;67668;52.294;4.692;2024-01-16T03:41:56;100995.13;;;3.40;85.85
78383;BME280;67668;52.294;4.692;2024-01-16T03:44:21;100981.19;;;3.39;85.73
78383;BME280;67668;52.294;4.692;2024-01-16T03:46:46;100967.25;;;3.39;85.57
78383;BME280;67668;52.294;4.692;2024-01-16T03:49:12;100966.41;;;3.38;85.48
78383;BME280;67668;52.294;4.692;2024-01-16T03:51:37;100967.25;;;3.39;85.57
78383;BME280;67668;52.294;4.692;2024-01-16T03:54:02;100975.22;;;3.37;86.14
78383;BME280;67668;52.294;4.692;2024-01-16T03:56:28;100971.84;;;3.35;85.75
78383;BME280;67668;52.294;4.692;2024-01-16T03:58:53;100974.38;;;3.37;86.36
78383;BME280;67668;52.294;4.692;2024-01-16T04:01:18;100967.38;;;3.37;85.99
78383;BME280;67668;52.294;4.692;2024-01-16T04:03:54;100968.28;;;3.36;85.99
78383;BME280;67668;52.294;4.692;2024-01-16T04:06:19;100965.59;;;3.38;85.99
78383;BME280;67668;52.294;4.692;2024-01-16T04:08:45;100969.13;;;3.37;85.89
78383;BME280;67668;52.294;4.692;2024-01-16T04:11:14;100970.00;;;3.37;85.93
78383;BME280;67668;52.294;4.692;2024-01-16T04:13:40;100973.53;;;3.36;86.44
78383;BME280;67668;52.294;4.692;2024-01-16T04:16:06;100973.53;;;3.36;86.19
78383;BME280;67668;52.294;4.692;2024-01-16T04:18:39;100962.22;;;3.36;86.15
78383;BME280;67668;52.294;4.692;2024-01-16T04:21:06;100959.72;;;3.34;85.81
78383;BME280;67668;52.294;4.692;2024-01-16T04:23:31;100963.25;;;3.33;86.37
78383;BME280;67668;52.294;4.692;2024-01-16T04:25:57;100963.25;;;3.33;86.33
78383;BME280;67668;52.294;4.692;2024-01-16T04:28:22;100952.78;;;3.33;86.17
78383;BME280;67668;52.294;4.692;2024-01-16T04:30:48;100953.63;;;3.34;85.74
78383;BME280;67668;52.294;4.692;2024-01-16T04:33:13;100951.94;;;3.33;85.96
78383;BME280;67668;52.294;4.692;2024-01-16T04:35:39;100951.09;;;3.32;86.35
78383;BME280;67668;52.294;4.692;2024-01-16T04:38:04;100942.41;;;3.32;86.52
78383;BME280;67668;52.294;4.692;2024-01-16T04:40:29;100944.22;;;3.31;86.45
78383;BME280;67668;52.294;4.692;2024-01-16T04:42:55;100944.22;;;3.31;86.06
78383;BME280;67668;52.294;4.692;2024-01-16T04:45:20;100949.44;;;3.31;86.06
78383;BME280;67668;52.294;4.692;2024-01-16T04:47:45;100949.44;;;3.31;86.10
78383;BME280;67668;52.294;4.692;2024-01-16T04:50:11;100952.97;;;3.30;86.81
78383;BME280;67668;52.294;4.692;2024-01-16T04:52:36;100952.97;;;3.30;86.58
78383;BME280;67668;52.294;4.692;2024-01-16T04:55:05;100951.28;;;3.29;86.65
78383;BME280;67668;52.294;4.692;2024-01-16T04:57:30;100955.59;;;3.30;86.56
78383;BME280;67668;52.294;4.692;2024-01-16T04:59:56;100956.50;;;3.29;86.59
78383;BME280;67668;52.294;4.692;2024-01-16T05:02:21;100949.97;;;3.22;86.00
78383;BME280;67668;52.294;4.692;2024-01-16T05:04:46;100955.19;;;3.22;86.10
78383;BME280;67668;52.294;4.692;2024-01-16T05:07:15;100951.13;;;3.18;84.84
78383;BME280;67668;52.294;4.692;2024-01-16T05:09:40;100948.50;;;3.18;85.68
78383;BME280;67668;52.294;4.692;2024-01-16T05:12:06;100944.09;;;3.19;86.37
78383;BME280;67668;52.294;4.692;2024-01-16T05:14:31;100964.06;;;3.20;86.40
78383;BME280;67668;52.294;4.692;2024-01-16T05:16:56;100963.16;;;3.21;86.10
78383;BME280;67668;52.294;4.692;2024-01-16T05:19:22;100957.06;;;3.20;86.49
78383;BME280;67668;52.294;4.692;2024-01-16T05:21:47;100974.47;;;3.21;86.74
78383;BME280;67668;52.294;4.692;2024-01-16T05:24:12;100964.81;;;3.22;86.83
78383;BME280;67668;52.294;4.692;2024-01-16T05:26:38;100962.19;;;3.22;86.45
78383;BME280;67668;52.294;4.692;2024-01-16T05:29:03;100958.84;;;3.20;86.31
78383;BME280;67668;52.294;4.692;2024-01-16T05:31:28;100959.78;;;3.19;86.54
78383;BME280;67668;52.294;4.692;2024-01-16T05:33:53;100960.63;;;3.19;86.49
78383;BME280;67668;52.294;4.692;2024-01-16T05:36:19;100949.31;;;3.19;86.39
78383;BME280;67668;52.294;4.692;2024-01-16T05:38:44;100942.22;;;3.21;87.00
78383;BME280;67668;52.294;4.692;2024-01-16T05:41:09;100934.38;;;3.21;87.04
78383;BME280;67668;52.294;4.692;2024-01-16T05:43:35;100942.22;;;3.21;86.99
78383;BME280;67668;52.294;4.692;2024-01-16T05:46:00;100930.94;;;3.20;86.75
78383;BME280;67668;52.294;4.692;2024-01-16T05:48:26;100938.78;;;3.20;86.92
78383;BME280;67668;52.294;4.692;2024-01-16T05:50:51;100938.78;;;3.20;86.86
78383;BME280;67668;52.294;4.692;2024-01-16T05:53:16;100934.38;;;3.21;87.01
78383;BME280;67668;52.294;4.692;2024-01-16T05:55:42;100932.81;;;3.18;87.14
78383;BME280;67668;52.294;4.692;2024-01-16T05:58:07;100939.69;;;3.19;86.43
78383;BME280;67668;52.294;4.692;2024-01-16T06:00:32;100935.41;;;3.18;86.76
78383;BME280;67668;52.294;4.692;2024-01-16T06:02:59;100924.19;;;3.16;86.70
78383;BME280;67668;52.294;4.692;2024-01-16T06:05:24;100923.47;;;3.14;86.84
78383;BME280;67668;52.294;4.692;2024-01-16T06:07:50;100928.69;;;3.14;86.94
78383;BME280;67668;52.294;4.692;2024-01-16T06:10:15;100918.97;;;3.16;86.52
78383;BME280;67668;52.294;4.692;2024-01-16T06:12:41;100920.84;;;3.14;86.99
78383;BME280;67668;52.294;4.692;2024-01-16T06:15:06;100924.31;;;3.15;86.82
78383;BME280;67668;52.294;4.692;2024-01-16T06:17:32;100920.66;;;3.17;87.20
78383;BME280;67668;52.294;4.692;2024-01-16T06:19:57;100922.34;;;3.18;86.71
78383;BME280;67668;52.294;4.692;2024-01-16T06:22:23;100927.56;;;3.18;87.09
78383;BME280;67668;52.294;4.692;2024-01-16T06:24:48;100925.78;;;3.19;86.80
78383;BME280;67668;52.294;4.692;2024-01-16T06:27:13;100929.25;;;3.19;87.02
78383;BME280;67668;52.294;4.692;2024-01-16T06:29:44;100917.84;;;3.20;86.87
78383;BME280;67668;52.294;4.692;2024-01-16T06:32:10;100922.16;;;3.21;87.24
78383;BME280;67668;52.294;4.692;2024-01-16T06:34:35;100915.97;;;3.22;86.93
78383;BME280;67668;52.294;4.692;2024-01-16T06:37:01;100915.13;;;3.22;86.84
78383;BME280;67668;52.294;4.692;2024-01-16T06:39:26;100915.06;;;3.23;86.93
78383;BME280;67668;52.294;4.692;2024-01-16T06:41:51;100920.28;;;3.23;86.88
78383;BME280;67668;52.294;4.692;2024-01-16T06:44:18;100915.91;;;3.24;87.27
78383;BME280;67668;52.294;4.692;2024-01-16T06:46:44;100908.97;;;3.23;86.80
78383;BME280;67668;52.294;4.692;2024-01-16T06:49:09;100915.97;;;3.22;87.02
78383;BME280;67668;52.294;4.692;2024-01-16T06:51:34;100910.75;;;3.22;86.53
78383;BME280;67668;52.294;4.692;2024-01-16T06:54:00;100918.59;;;3.22;87.13
78383;BME280;67668;52.294;4.692;2024-01-16T06:56:25;100913.34;;;3.22;86.67
78383;BME280;67668;52.294;4.692;2024-01-16T06:58:51;100911.69;;;3.21;86.83
78383;BME280;67668;52.294;4.692;2024-01-16T07:01:16;100909.09;;;3.21;86.70
78383;BME280;67668;52.294;4.692;2024-01-16T07:03:41;100910.00;;;3.20;86.81
78383;BME280;67668;52.294;4.692;2024-01-16T07:06:07;100914.41;;;3.20;86.69
78383;BME280;67668;52.294;4.692;2024-01-16T07:08:32;100915.25;;;3.20;87.18
78383;BME280;67668;52.294;4.692;2024-01-16T07:10:58;100918.78;;;3.19;86.84
78383;BME280;67668;52.294;4.692;2024-01-16T07:13:23;100919.63;;;3.20;87.40
78383;BME280;67668;52.294;4.692;2024-01-16T07:15:48;100922.34;;;3.18;86.89
78383;BME280;67668;52.294;4.692;2024-01-16T07:18:14;100926.72;;;3.18;87.17
78383;BME280;67668;52.294;4.692;2024-01-16T07:20:39;100924.97;;;3.18;87.12
78383;BME280;67668;52.294;4.692;2024-01-16T07:23:04;100923.28;;;3.17;86.66
78383;BME280;67668;52.294;4.692;2024-01-16T07:25:30;100924.13;;;3.18;87.04
78383;BME280;67668;52.294;4.692;2024-01-16T07:27:56;100931.13;;;3.17;87.10
78383;BME280;67668;52.294;4.692;2024-01-16T07:30:21;100930.28;;;3.17;86.90
78383;BME280;67668;52.294;4.692;2024-01-16T07:32:46;100932.03;;;3.16;86.71
78383;BME280;67668;52.294;4.692;2024-01-16T07:35:11;100932.03;;;3.16;87.24
78383;BME280;67668;52.294;4.692;2024-01-16T07:37:37;100932.97;;;3.15;86.62
78383;BME280;67668;52.294;4.692;2024-01-16T07:40:03;100937.38;;;3.15;87.26
78383;BME280;67668;52.294;4.692;2024-01-16T07:42:31;100941.75;;;3.14;86.86
78383;BME280;67668;52.294;4.692;2024-01-16T07:44:59;100939.03;;;3.16;86.75
78383;BME280;67668;52.294;4.692;2024-01-16T07:47:25;100936.53;;;3.14;87.11
78383;BME280;67668;52.294;4.692;2024-01-16T07:49:50;100940.00;;;3.15;86.81
78383;BME280;67668;52.294;4.692;2024-01-16T07:52:15;100937.38;;;3.15;87.42
78383;BME280;67668;52.294;4.692;2024-01-16T07:54:41;100945.28;;;3.13;86.80
78383;BME280;67668;52.294;4.692;2024-01-16T07:57:06;100936.53;;;3.14;86.85
78383;BME280;67668;52.294;4.692;2024-01-16T07:59:31;100935.69;;;3.13;87.25
78383;BME280;67668;52.294;4.692;2024-01-16T08:01:57;100940.06;;;3.13;86.73
78383;BME280;67668;52.294;4.692;2024-01-16T08:04:22;100939.16;;;3.14;87.55
78383;BME280;67668;52.294;4.692;2024-01-16T08:06:47;100934.75;;;3.15;86.71
78383;BME280;67668;52.294;4.692;2024-01-16T08:09:13;100940.00;;;3.15;87.17
78383;BME280;67668;52.294;4.692;2024-01-16T08:11:39;100937.38;;;3.15;87.51
78383;BME280;67668;52.294;4.692;2024-01-16T08:14:05;100930.47;;;3.13;86.86
78383;BME280;67668;52.294;4.692;2024-01-16T08:16:30;100934.84;;;3.13;87.15
78383;BME280;67668;52.294;4.692;2024-01-16T08:18:55;100928.75;;;3.12;86.73
78383;BME280;67668;52.294;4.692;2024-01-16T08:21:21;100931.31;;;3.14;87.04
78383;BME280;67668;52.294;4.692;2024-01-16T08:23:46;100933.91;;;3.14;86.63
78383;BME280;67668;52.294;4.692;2024-01-16T08:26:12;100936.53;;;3.14;86.72
78383;BME280;67668;52.294;4.692;2024-01-16T08:28:37;100933.91;;;3.14;86.96
78383;BME280;67668;52.294;4.692;2024-01-16T08:31:04;100932.22;;;3.13;86.17
78383;BME280;67668;52.294;4.692;2024-01-16T08:33:29;100934.94;;;3.11;86.78
78383;BME280;67668;52.294;4.692;2024-01-16T08:35:54;100929.63;;;3.13;86.62
78383;BME280;67668;52.294;4.692;2024-01-16T08:38:20;100934.84;;;3.13;86.70
78383;BME280;67668;52.294;4.692;2024-01-16T08:40:45;100935.75;;;3.12;86.48
78383;BME280;67668;52.294;4.692;2024-01-16T08:43:10;100933.16;;;3.12;86.81
78383;BME280;67668;52.294;4.692;2024-01-16T08:45:36;100933.16;;;3.12;86.54
78383;BME280;67668;52.294;4.692;2024-01-16T08:48:01;100933.25;;;3.10;86.10
78383;BME280;67668;52.294;4.692;2024-01-16T08:50:26;100930.66;;;3.10;86.15
78383;BME280;67668;52.294;4.692;2024-01-16T08:52:52;100929.78;;;3.10;85.99
78383;BME280;67668;52.294;4.692;2024-01-16T08:55:17;100930.66;;;3.10;85.95
78383;BME280;67668;52.294;4.692;2024-01-16T08:57:43;100924.56;;;3.10;86.61
78383;BME280;67668;52.294;4.692;2024-01-16T09:00:08;100931.50;;;3.11;86.50
78383;BME280;67668;52.294;4.692;2024-01-16T09:02:35;100927.25;;;3.08;85.91
78383;BME280;67668;52.294;4.692;2024-01-16T09:05:00;100925.59;;;3.07;86.58
78383;BME280;67668;52.294;4.692;2024-01-16T09:07:26;100917.66;;;3.09;86.50
78383;BME280;67668;52.294;4.692;2024-01-16T09:09:51;100919.41;;;3.08;86.17
78383;BME280;67668;52.294;4.692;2024-01-16T09:12:17;100917.66;;;3.09;86.70
78383;BME280;67668;52.294;4.692;2024-01-16T09:14:42;100920.38;;;3.07;86.17
78383;BME280;67668;52.294;4.692;2024-01-16T09:17:07;100932.50;;;3.08;85.95
78383;BME280;67668;52.294;4.692;2024-01-16T09:19:33;100930.84;;;3.07;86.00
78383;BME280;67668;52.294;4.692;2024-01-16T09:21:58;100923.00;;;3.07;85.92
78383;BME280;67668;52.294;4.692;2024-01-16T09:24:23;100927.25;;;3.08;86.53
78383;BME280;67668;52.294;4.692;2024-01-16T09:26:49;100927.25;;;3.08;86.02
78383;BME280;67668;52.294;4.692;2024-01-16T09:29:17;100924.75;;;3.07;85.22
78383;BME280;67668;52.294;4.692;2024-01-16T09:31:43;100921.22;;;3.08;85.72
78383;BME280;67668;52.294;4.692;2024-01-16T09:34:09;100922.88;;;3.09;86.20
78383;BME280;67668;52.294;4.692;2024-01-16T09:36:35;100923.72;;;3.09;86.38
78383;BME280;67668;52.294;4.692;2024-01-16T09:39:04;100928.09;;;3.09;85.05
78383;BME280;67668;52.294;4.692;2024-01-16T09:41:32;100931.69;;;3.08;85.06
78383;BME280;67668;52.294;4.692;2024-01-16T09:43:59;100932.50;;;3.08;85.49
78383;BME280;67668;52.294;4.692;2024-01-16T09:46:25;100926.44;;;3.08;85.35
78383;BME280;67668;52.294;4.692;2024-01-16T09:48:54;100921.22;;;3.08;85.43
78383;BME280;67668;52.294;4.692;2024-01-16T09:51:20;100926.44;;;3.08;85.54
78383;BME280;67668;52.294;4.692;2024-01-16T09:53:45;100912.41;;;3.09;85.48
78383;BME280;67668;52.294;4.692;2024-01-16T09:56:15;100912.41;;;3.09;85.17
78383;BME280;67668;52.294;4.692;2024-01-16T09:58:43;100900.31;;;3.08;84.76
78383;BME280;67668;52.294;4.692;2024-01-16T10:01:10;100905.53;;;3.08;85.08
78383;BME280;67668;52.294;4.692;2024-01-16T10:03:37;100911.56;;;3.08;85.67
78383;BME280;67668;52.294;4.692;2024-01-16T10:06:04;100914.09;;;3.10;85.80
78383;BME280;67668;52.294;4.692;2024-01-16T10:08:31;100908.81;;;3.11;85.68
78383;BME280;67668;52.294;4.692;2024-01-16T10:10:57;100903.56;;;3.11;85.40
78383;BME280;67668;52.294;4.692;2024-01-16T10:13:22;100900.97;;;3.11;85.88
78383;BME280;67668;52.294;4.692;2024-01-16T10:15:51;100906.19;;;3.11;85.61
78383;BME280;67668;52.294;4.692;2024-01-16T10:18:28;100902.63;;;3.12;84.80
78383;BME280;67668;52.294;4.692;2024-01-16T10:20:57;100906.19;;;3.11;84.12
78383;BME280;67668;52.294;4.692;2024-01-16T10:23:27;100902.72;;;3.11;83.77
78383;BME280;67668;52.294;4.692;2024-01-16T10:28:36;100896.66;;;3.10;83.55
78383;BME280;67668;52.294;4.692;2024-01-16T10:31:03;100906.06;;;3.13;82.94
78383;BME280;67668;52.294;4.692;2024-01-16T10:33:29;100905.16;;;3.14;83.11
78383;BME280;67668;52.294;4.692;2024-01-16T10:36:14;100900.84;;;3.13;82.82
78383;BME280;67668;52.294;4.692;2024-01-16T10:38:42;100900.13;;;3.11;82.01
78383;BME280;67668;52.294;4.692;2024-01-16T10:41:16;100891.31;;;3.12;82.46
78383;BME280;67668;52.294;4.692;2024-01-16T10:44:03;100892.94;;;3.15;83.50
78383;BME280;67668;52.294;4.692;2024-01-16T10:46:29;100892.09;;;3.14;82.88
78383;BME280;67668;52.294;4.692;2024-01-16T10:49:04;100893.66;;;3.17;82.82
78383;BME280;67668;52.294;4.692;2024-01-16T10:51:31;100883.13;;;3.18;82.44
78383;BME280;67668;52.294;4.692;2024-01-16T10:54:03;100879.56;;;3.19;82.04
78383;BME280;67668;52.294;4.692;2024-01-16T10:56:31;100893.28;;;3.23;83.42
78383;BME280;67668;52.294;4.692;2024-01-16T11:01:30;100883.59;;;3.25;82.04
78383;BME280;67668;52.294;4.692;2024-01-16T11:03:57;100885.16;;;3.27;81.64
78383;BME280;67668;52.294;4.692;2024-01-16T11:06:24;100875.34;;;3.31;82.25
78383;BME280;67668;52.294;4.692;2024-01-16T11:08:49;100875.16;;;3.34;83.25
78383;BME280;67668;52.294;4.692;2024-01-16T11:11:16;100876.75;;;3.36;83.38
78383;BME280;67668;52.294;4.692;2024-01-16T11:13:42;100867.00;;;3.38;83.40
78383;BME280;67668;52.294;4.692;2024-01-16T11:16:12;100868.50;;;3.42;82.79
78383;BME280;67668;52.294;4.692;2024-01-16T11:18:38;100864.78;;;3.46;82.00
78383;BME280;67668;52.294;4.692;2024-01-16T11:21:07;100874.19;;;3.49;81.89
78383;BME280;67668;52.294;4.692;2024-01-16T11:23:34;100870.53;;;3.51;81.71
78383;BME280;67668;52.294;4.692;2024-01-16T11:26:00;100864.19;;;3.55;82.58
78383;BME280;67668;52.294;4.692;2024-01-16T11:28:45;100866.53;;;3.60;83.07
78383;BME280;67668;52.294;4.692;2024-01-16T11:31:30;100850.56;;;3.64;82.61
78383;BME280;67668;52.294;4.692;2024-01-16T11:33:56;100856.50;;;3.67;79.46
78383;BME280;67668;52.294;4.692;2024-01-16T11:36:50;100851.81;;;3.72;80.43
78383;BME280;67668;52.294;4.692;2024-01-16T11:39:20;100849.00;;;3.75;80.70
78383;BME280;67668;52.294;4.692;2024-01-16T11:41:50;100851.53;;;3.76;79.76
78383;BME280;67668;52.294;4.692;2024-01-16T11:47:04;100844.75;;;3.86;80.23
78383;BME280;67668;52.294;4.692;2024-01-16T11:49:29;100836.63;;;3.91;79.90
78383;BME280;67668;52.294;4.692;2024-01-16T11:51:57;100833.81;;;3.94;79.24
78383;BME280;67668;52.294;4.692;2024-01-16T11:54:22;100830.97;;;3.97;79.40
78383;BME280;67668;52.294;4.692;2024-01-16T11:57:19;100830.59;;;4.03;80.73
78383;BME280;67668;52.294;4.692;2024-01-16T12:02:21;100834.47;;;4.10;80.39
78383;BME280;67668;52.294;4.692;2024-01-16T12:04:52;100827.34;;;4.12;79.46
78383;BME280;67668;52.294;4.692;2024-01-16T12:07:19;100829.03;;;4.13;78.22
78383;BME280;67668;52.294;4.692;2024-01-16T12:09:45;100830.53;;;4.17;79.46
78383;BME280;67668;52.294;4.692;2024-01-16T12:12:10;100823.19;;;4.22;78.20
78383;BME280;67668;52.294;4.692;2024-01-16T12:14:37;100815.03;;;4.27;78.46
78383;BME280;67668;52.294;4.692;2024-01-16T12:17:10;100826.16;;;4.30;78.79
78383;BME280;67668;52.294;4.692;2024-01-16T12:19:36;100817.97;;;4.35;79.07
78383;BME280;67668;52.294;4.692;2024-01-16T12:22:01;100822.06;;;4.39;78.92
78383;BME280;67668;52.294;4.692;2024-01-16T12:24:26;100818.38;;;4.41;77.72
78383;BME280;67668;52.294;4.692;2024-01-16T12:26:52;100821.44;;;4.48;79.08
78383;BME280;67668;52.294;4.692;2024-01-16T12:29:18;100817.56;;;4.53;80.12
78383;BME280;67668;52.294;4.692;2024-01-16T12:31:43;100820.94;;;4.55;79.75
78383;BME280;67668;52.294;4.692;2024-01-16T12:34:09;100821.56;;;4.59;78.30
78383;BME280;67668;52.294;4.692;2024-01-16T12:36:36;100819.44;;;4.64;78.88
78383;BME280;67668;52.294;4.692;2024-01-16T12:39:02;100814.84;;;4.67;78.20
78383;BME280;67668;52.294;4.692;2024-01-16T12:41:34;100815.38;;;4.73;79.41
78383;BME280;67668;52.294;4.692;2024-01-16T12:44:02;100811.50;;;4.78;79.18
78383;BME280;67668;52.294;4.692;2024-01-16T12:46:27;100810.56;;;4.79;76.17
78383;BME280;67668;52.294;4.692;2024-01-16T12:48:52;100808.56;;;4.83;76.44
78383;BME280;67668;52.294;4.692;2024-01-16T12:51:20;100813.38;;;4.89;78.34
78383;BME280;67668;52.294;4.692;2024-01-16T12:53:48;100800.88;;;4.92;77.01
78383;BME280;67668;52.294;4.692;2024-01-16T12:56:18;100797.84;;;4.98;77.65
78383;BME280;67668;52.294;4.692;2024-01-16T12:58:43;100792.28;;;5.03;78.42
78383;BME280;67668;52.294;4.692;2024-01-16T13:01:29;100799.81;;;5.07;78.72
78383;BME280;67668;52.294;4.692;2024-01-16T13:03:54;100790.56;;;5.14;78.29
78383;BME280;67668;52.294;4.692;2024-01-16T13:06:21;100794.66;;;5.18;79.14